Time;durP1;ratioP1;P1;durP2;ratioP2;P2;SDS_P1;SDS_P2;PMS_P1;PMS_P2;Temp;Humidity;BMP_temperature;BMP_pressure;BME280_temperature;BME280_humidity;BME280_pressure;Samples;Min_cycle;Max_cycle;Signal;HPM_P1;HPM_P2
2023/03/03 00:01:32;;;;;;;;;23.67;21.33;;;;;;;;119766;1184;25288;-66
2023/03/03 00:04:00;;;;;;;;;25.67;18.33;;;;;;;;119912;1190;24894;-67
2023/03/03 00:06:29;;;;;;;;;20.00;19.00;;;;;;;;119944;1190;25346;-67
2023/03/03 00:08:57;;;;;;;;;27.33;20.33;;;;;;;;119930;1190;25633;-64
2023/03/03 00:11:26;;;;;;;;;26.50;20.50;;;;;;;;119952;1190;25037;-64
2023/03/03 00:13:55;;;;;;;;;21.67;17.67;;;;;;;;119911;1183;24995;-64
2023/03/03 00:16:28;;;;;;;;;15.00;15.00;;;;;;;;119895;1182;24980;-64
2023/03/03 00:18:56;;;;;;;;;30.67;24.33;;;;;;;;119942;1190;25193;-64
2023/03/03 00:21:39;;;;;;;;;21.33;18.33;;;;;;;;119889;1182;25484;-64
2023/03/03 00:24:23;;;;;;;;;18.75;18.75;;;;;;;;120040;1186;24766;-64
2023/03/03 00:26:54;;;;;;;;;24.00;18.67;;;;;;;;120113;1185;25512;-66
2023/03/03 00:29:25;;;;;;;;;21.67;21.00;;;;;;;;120110;1189;24750;-66
2023/03/03 00:31:54;;;;;;;;;24.00;20.50;;;;;;;;120109;1189;25400;-64
2023/03/03 00:34:27;;;;;;;;;24.00;20.33;;;;;;;;119898;1190;25155;-64
2023/03/03 00:36:57;;;;;;;;;23.00;19.00;;;;;;;;119887;1190;24964;-64
2023/03/03 00:39:38;;;;;;;;;30.67;20.33;;;;;;;;119749;1183;25319;-64
2023/03/03 00:42:16;;;;;;;;;29.25;23.50;;;;;;;;119723;1190;25524;-64
2023/03/03 00:44:55;;;;;;;;;23.00;19.00;;;;;;;;119905;1190;24814;-64
2023/03/03 00:47:27;;;;;;;;;27.00;22.00;;;;;;;;119905;1187;25309;-64
2023/03/03 00:50:33;;;;;;;;;28.00;24.33;;;;;;;;119942;1190;24978;-64
2023/03/03 00:53:04;;;;;;;;;28.33;24.00;;;;;;;;119904;1182;25448;-64
2023/03/03 00:55:34;;;;;;;;;27.00;24.67;;;;;;;;119919;1190;24799;-64
2023/03/03 00:58:03;;;;;;;;;22.00;20.33;;;;;;;;119907;1190;25348;-64
2023/03/03 01:00:32;;;;;;;;;25.00;22.33;;;;;;;;119912;1177;25404;-64
2023/03/03 01:03:04;;;;;;;;;30.67;25.67;;;;;;;;119906;1190;25168;-64
2023/03/03 01:05:32;;;;;;;;;27.00;21.67;;;;;;;;119957;1182;24792;-64
2023/03/03 01:08:01;;;;;;;;;26.33;20.00;;;;;;;;119905;1190;24718;-64
2023/03/03 01:10:33;;;;;;;;;27.00;24.00;;;;;;;;119900;1182;25536;-64
2023/03/03 01:13:02;;;;;;;;;30.00;26.67;;;;;;;;119909;1182;24864;-64
2023/03/03 01:15:31;;;;;;;;;23.50;18.00;;;;;;;;119891;1190;24889;-66
2023/03/03 01:17:59;;;;;;;;;23.00;23.00;;;;;;;;119920;1182;25391;-65
2023/03/03 01:20:27;;;;;;;;;32.67;23.00;;;;;;;;119920;1182;25214;-65
2023/03/03 01:22:55;;;;;;;;;23.00;22.00;;;;;;;;119912;1190;25515;-65
2023/03/03 01:25:24;;;;;;;;;26.67;23.67;;;;;;;;119928;1190;25411;-65
2023/03/03 01:27:52;;;;;;;;;23.50;22.00;;;;;;;;119888;1182;25771;-65
2023/03/03 01:30:20;;;;;;;;;29.33;24.33;;;;;;;;119927;1190;25362;-65
2023/03/03 01:32:49;;;;;;;;;25.67;20.67;;;;;;;;119912;1190;24898;-65
2023/03/03 01:35:17;;;;;;;;;29.67;25.67;;;;;;;;119905;1182;25270;-65
2023/03/03 01:37:45;;;;;;;;;26.33;19.00;;;;;;;;119728;1190;25479;-65
2023/03/03 01:40:24;;;;;;;;;28.33;24.67;;;;;;;;119909;1190;25698;-65
2023/03/03 01:42:52;;;;;;;;;28.50;28.00;;;;;;;;119927;1190;24994;-66
2023/03/03 01:45:22;;;;;;;;;28.67;25.33;;;;;;;;119933;1182;25149;-66
2023/03/03 01:47:52;;;;;;;;;30.67;24.33;;;;;;;;119906;1190;25635;-66
2023/03/03 01:50:30;;;;;;;;;20.00;20.00;;;;;;;;119925;1190;25149;-66
2023/03/03 01:53:01;;;;;;;;;28.33;25.67;;;;;;;;119924;1181;25678;-65
2023/03/03 01:55:34;;;;;;;;;29.33;24.00;;;;;;;;119926;1190;25280;-65
2023/03/03 01:58:22;;;;;;;;;25.00;23.00;;;;;;;;119901;1182;25704;-65
2023/03/03 02:00:54;;;;;;;;;31.50;26.50;;;;;;;;119930;1182;24847;-65
2023/03/03 02:03:23;;;;;;;;;29.33;24.33;;;;;;;;119897;1190;24725;-65
2023/03/03 02:05:55;;;;;;;;;29.67;23.00;;;;;;;;119936;1190;25601;-65
2023/03/03 02:08:29;;;;;;;;;27.00;24.00;;;;;;;;119935;1182;24640;-65
2023/03/03 02:10:58;;;;;;;;;22.33;21.00;;;;;;;;119889;1190;25515;-65
2023/03/03 02:13:26;;;;;;;;;24.00;20.00;;;;;;;;119907;1190;25055;-65
2023/03/03 02:15:55;;;;;;;;;31.50;26.00;;;;;;;;119928;1182;25574;-66
2023/03/03 02:18:24;;;;;;;;;26.33;23.33;;;;;;;;119704;1190;25598;-65
2023/03/03 02:21:01;;;;;;;;;26.67;23.00;;;;;;;;119892;1182;25288;-65
2023/03/03 02:23:34;;;;;;;;;32.00;27.00;;;;;;;;119949;1182;25637;-66
2023/03/03 02:26:06;;;;;;;;;31.00;24.67;;;;;;;;119904;1190;24701;-65
2023/03/03 02:28:36;;;;;;;;;21.67;21.67;;;;;;;;119913;1182;25722;-65
2023/03/03 02:31:11;;;;;;;;;18.00;16.33;;;;;;;;119744;1184;25719;-65
2023/03/03 02:33:42;;;;;;;;;30.75;24.75;;;;;;;;119933;1181;25259;-65
2023/03/03 02:36:16;;;;;;;;;29.33;22.67;;;;;;;;119915;1190;25652;-66
2023/03/03 02:39:08;;;;;;;;;25.50;21.50;;;;;;;;119905;1190;24832;-65
2023/03/03 02:41:52;;;;;;;;;27.33;20.67;;;;;;;;119918;1182;25573;-65
2023/03/03 02:44:25;;;;;;;;;30.00;25.00;;;;;;;;119944;1182;25530;-64
2023/03/03 02:46:54;;;;;;;;;29.00;23.67;;;;;;;;119982;1190;26195;-65
2023/03/03 02:49:28;;;;;;;;;24.00;20.33;;;;;;;;119730;1190;24747;-65
2023/03/03 02:51:56;;;;;;;;;28.50;22.00;;;;;;;;119902;1190;24738;-65
2023/03/03 02:54:25;;;;;;;;;25.50;22.00;;;;;;;;119935;1182;25656;-65
2023/03/03 02:56:54;;;;;;;;;24.00;21.00;;;;;;;;119896;1190;25206;-65
2023/03/03 02:59:22;;;;;;;;;30.25;23.00;;;;;;;;119935;1186;24847;-65
2023/03/03 03:01:51;;;;;;;;;24.00;20.67;;;;;;;;119907;1182;25128;-65
2023/03/03 03:04:25;;;;;;;;;24.00;22.50;;;;;;;;119914;1190;25390;-65
2023/03/03 03:06:54;;;;;;;;;20.67;18.67;;;;;;;;119905;1190;25201;-65
2023/03/03 03:09:24;;;;;;;;;26.67;23.00;;;;;;;;119872;1190;25344;-65
2023/03/03 03:11:52;;;;;;;;;29.00;24.33;;;;;;;;119934;1181;24778;-65
2023/03/03 03:14:20;;;;;;;;;32.50;25.00;;;;;;;;119921;1181;24792;-65
2023/03/03 03:16:48;;;;;;;;;18.67;18.67;;;;;;;;119871;1190;25245;-65
2023/03/03 03:19:16;;;;;;;;;26.50;23.50;;;;;;;;119912;1190;25470;-65
2023/03/03 03:21:45;;;;;;;;;27.00;24.33;;;;;;;;119902;1190;25575;-65
2023/03/03 03:24:13;;;;;;;;;26.00;22.67;;;;;;;;119924;1190;25040;-64
2023/03/03 03:26:41;;;;;;;;;25.67;21.67;;;;;;;;119936;1190;25002;-65
2023/03/03 03:29:09;;;;;;;;;30.00;27.33;;;;;;;;119934;1190;24760;-65
2023/03/03 03:31:38;;;;;;;;;30.50;24.00;;;;;;;;119914;1190;25019;-65
2023/03/03 03:34:06;;;;;;;;;28.67;25.33;;;;;;;;119945;1182;25131;-66
2023/03/03 03:36:34;;;;;;;;;22.75;20.75;;;;;;;;119939;1186;24792;-65
2023/03/03 03:39:05;;;;;;;;;26.50;23.50;;;;;;;;119898;1190;24820;-65
2023/03/03 03:41:33;;;;;;;;;34.00;25.50;;;;;;;;119944;1182;25632;-65
2023/03/03 03:44:01;;;;;;;;;29.67;25.00;;;;;;;;119912;1190;24892;-66
2023/03/03 03:46:30;;;;;;;;;26.00;19.33;;;;;;;;119896;1190;25243;-65
2023/03/03 03:48:58;;;;;;;;;26.67;24.00;;;;;;;;119910;1190;25321;-65
2023/03/03 03:51:26;;;;;;;;;27.33;25.00;;;;;;;;119916;1190;24907;-65
2023/03/03 03:53:54;;;;;;;;;14.67;14.33;;;;;;;;119921;1181;25742;-66
2023/03/03 03:56:22;;;;;;;;;21.00;21.00;;;;;;;;119929;1190;25624;-65
2023/03/03 03:58:50;;;;;;;;;25.00;20.00;;;;;;;;119907;1190;25513;-65
2023/03/03 04:01:18;;;;;;;;;28.00;23.50;;;;;;;;119913;1190;25563;-65
2023/03/03 04:03:47;;;;;;;;;24.00;19.67;;;;;;;;119920;1190;24909;-65
2023/03/03 04:06:16;;;;;;;;;22.33;21.67;;;;;;;;119931;1190;25275;-66
2023/03/03 04:08:44;;;;;;;;;26.00;24.67;;;;;;;;119914;1190;25158;-64
2023/03/03 04:11:12;;;;;;;;;27.00;22.00;;;;;;;;119917;1190;24735;-64
2023/03/03 04:13:41;;;;;;;;;30.00;26.00;;;;;;;;119938;1182;25529;-64
2023/03/03 04:16:09;;;;;;;;;26.33;24.33;;;;;;;;119937;1182;25490;-65
2023/03/03 04:18:37;;;;;;;;;30.33;25.00;;;;;;;;119927;1182;24986;-65
2023/03/03 04:21:05;;;;;;;;;18.50;18.00;;;;;;;;119925;1190;24766;-65
2023/03/03 04:23:34;;;;;;;;;23.50;23.00;;;;;;;;119952;1190;24677;-65
2023/03/03 04:26:02;;;;;;;;;28.00;22.00;;;;;;;;119901;1190;24717;-66
2023/03/03 04:28:30;;;;;;;;;25.00;24.33;;;;;;;;119919;1190;25109;-65
2023/03/03 04:30:58;;;;;;;;;22.33;14.67;;;;;;;;119914;1190;25602;-65
2023/03/03 04:33:26;;;;;;;;;23.67;22.00;;;;;;;;119906;1187;25286;-65
2023/03/03 04:35:55;;;;;;;;;30.00;24.00;;;;;;;;119964;1190;25408;-66
2023/03/03 04:38:23;;;;;;;;;28.00;24.50;;;;;;;;120105;1189;25093;-65
2023/03/03 04:40:51;;;;;;;;;27.00;23.33;;;;;;;;120125;1186;24775;-66
2023/03/03 04:43:19;;;;;;;;;22.00;20.00;;;;;;;;120118;1182;25300;-66
2023/03/03 04:45:48;;;;;;;;;23.50;23.00;;;;;;;;120114;1186;25582;-66
2023/03/03 04:48:16;;;;;;;;;24.00;20.00;;;;;;;;119945;1190;25226;-65
2023/03/03 04:50:44;;;;;;;;;25.25;23.00;;;;;;;;120103;1190;24731;-66
2023/03/03 04:53:12;;;;;;;;;26.50;24.00;;;;;;;;120131;1181;25292;-66
2023/03/03 04:55:41;;;;;;;;;25.00;20.00;;;;;;;;119962;1190;25419;-66
2023/03/03 04:58:09;;;;;;;;;24.00;22.00;;;;;;;;120102;1190;25114;-66
2023/03/03 05:00:38;;;;;;;;;20.50;19.00;;;;;;;;119927;1183;25220;-66
2023/03/03 05:03:07;;;;;;;;;28.67;24.33;;;;;;;;119965;1183;25081;-66
2023/03/03 05:05:36;;;;;;;;;22.00;20.50;;;;;;;;119954;1183;24960;-66
2023/03/03 05:08:04;;;;;;;;;30.00;25.00;;;;;;;;120119;1190;25093;-65
2023/03/03 05:10:32;;;;;;;;;25.00;22.00;;;;;;;;119955;1182;24902;-66
2023/03/03 05:13:02;;;;;;;;;27.67;22.33;;;;;;;;119920;1190;25528;-66
2023/03/03 05:15:30;;;;;;;;;24.00;22.50;;;;;;;;119952;1190;24807;-66
2023/03/03 05:17:59;;;;;;;;;27.67;23.33;;;;;;;;119950;1190;25648;-66
2023/03/03 05:20:27;;;;;;;;;25.67;23.00;;;;;;;;120115;1190;25474;-66
2023/03/03 05:22:58;;;;;;;;;27.67;22.33;;;;;;;;120117;1190;25310;-66
2023/03/03 05:25:26;;;;;;;;;28.50;22.50;;;;;;;;120126;1190;25007;-67
2023/03/03 05:27:54;;;;;;;;;29.50;23.00;;;;;;;;119947;1182;25452;-67
2023/03/03 05:30:23;;;;;;;;;24.00;23.00;;;;;;;;120118;1190;24818;-67
2023/03/03 05:32:51;;;;;;;;;26.00;24.50;;;;;;;;120106;1190;25203;-67
2023/03/03 05:35:19;;;;;;;;;27.67;24.00;;;;;;;;120102;1190;25600;-67
2023/03/03 05:37:48;;;;;;;;;27.50;23.50;;;;;;;;120113;1190;25146;-67
2023/03/03 05:40:16;;;;;;;;;21.67;20.00;;;;;;;;120109;1186;25326;-66
2023/03/03 05:42:45;;;;;;;;;22.67;19.33;;;;;;;;120109;1180;25069;-66
2023/03/03 05:45:13;;;;;;;;;26.00;21.67;;;;;;;;120114;1190;25085;-66
2023/03/03 05:47:41;;;;;;;;;24.67;23.33;;;;;;;;120124;1190;24970;-66
2023/03/03 05:50:11;;;;;;;;;30.00;24.50;;;;;;;;120120;1182;24819;-66
2023/03/03 05:52:39;;;;;;;;;29.50;22.50;;;;;;;;119952;1190;24759;-66
2023/03/03 05:55:08;;;;;;;;;26.00;23.00;;;;;;;;119960;1190;24945;-67
2023/03/03 05:57:36;;;;;;;;;30.00;25.33;;;;;;;;119960;1190;25324;-67
2023/03/03 06:00:05;;;;;;;;;24.50;24.00;;;;;;;;120116;1189;25072;-66
2023/03/03 06:02:34;;;;;;;;;27.33;23.33;;;;;;;;119941;1190;25456;-66
2023/03/03 06:05:02;;;;;;;;;24.00;23.00;;;;;;;;120102;1190;25521;-67
2023/03/03 06:07:30;;;;;;;;;27.00;23.50;;;;;;;;119953;1182;24707;-67
2023/03/03 06:09:59;;;;;;;;;21.50;21.00;;;;;;;;120100;1190;25116;-66
2023/03/03 06:12:27;;;;;;;;;29.33;25.00;;;;;;;;119951;1190;25581;-67
2023/03/03 06:14:55;;;;;;;;;32.67;25.67;;;;;;;;119947;1190;25446;-67
2023/03/03 06:17:23;;;;;;;;;30.00;27.00;;;;;;;;120113;1182;25745;-67
2023/03/03 06:19:51;;;;;;;;;26.00;22.00;;;;;;;;119936;1182;24684;-67
2023/03/03 06:22:20;;;;;;;;;21.67;20.33;;;;;;;;119945;1182;25566;-66
2023/03/03 06:24:48;;;;;;;;;24.33;22.33;;;;;;;;120109;1189;24907;-67
2023/03/03 06:27:16;;;;;;;;;28.00;22.33;;;;;;;;120107;1190;25222;-66
2023/03/03 06:29:44;;;;;;;;;24.00;20.33;;;;;;;;120112;1189;25312;-67
2023/03/03 06:32:13;;;;;;;;;28.00;24.33;;;;;;;;120115;1189;24700;-66
2023/03/03 06:34:41;;;;;;;;;24.50;23.00;;;;;;;;120096;1189;24708;-66
2023/03/03 06:37:09;;;;;;;;;28.50;20.50;;;;;;;;119954;1190;24796;-66
2023/03/03 06:39:37;;;;;;;;;29.00;27.00;;;;;;;;119946;1190;25081;-66
2023/03/03 06:42:08;;;;;;;;;27.00;24.33;;;;;;;;120098;1190;24874;-66
2023/03/03 06:44:36;;;;;;;;;29.33;25.00;;;;;;;;120112;1190;25406;-67
2023/03/03 06:47:04;;;;;;;;;24.67;23.33;;;;;;;;120100;1189;25573;-66
2023/03/03 06:49:33;;;;;;;;;30.67;24.67;;;;;;;;119945;1183;24873;-66
2023/03/03 06:52:11;;;;;;;;;20.50;18.50;;;;;;;;120103;1190;25629;-66
2023/03/03 06:54:40;;;;;;;;;20.00;20.00;;;;;;;;120100;1190;25217;-67
2023/03/03 06:57:24;;;;;;;;;27.50;21.50;;;;;;;;120116;1182;25713;-67
2023/03/03 06:59:55;;;;;;;;;24.67;22.67;;;;;;;;120116;1182;26417;-67
2023/03/03 07:02:23;;;;;;;;;28.00;26.00;;;;;;;;119926;1190;26517;-66
2023/03/03 07:04:53;;;;;;;;;29.00;23.33;;;;;;;;120111;1190;25330;-66
2023/03/03 07:07:23;;;;;;;;;27.00;22.33;;;;;;;;119942;1190;24789;-66
2023/03/03 07:09:54;;;;;;;;;31.67;23.33;;;;;;;;120105;1181;24860;-66
2023/03/03 07:12:25;;;;;;;;;21.67;20.67;;;;;;;;120125;1190;25306;-66
2023/03/03 07:15:34;;;;;;;;;19.67;16.67;;;;;;;;119927;1190;25489;-66
2023/03/03 07:18:07;;;;;;;;;25.67;22.00;;;;;;;;120107;1190;25471;-66
2023/03/03 07:20:38;;;;;;;;;23.67;22.00;;;;;;;;119940;1190;25279;-66
2023/03/03 07:23:27;;;;;;;;;26.33;24.33;;;;;;;;119936;1190;25356;-66
2023/03/03 07:25:55;;;;;;;;;24.00;23.67;;;;;;;;120116;1190;24726;-66
2023/03/03 07:28:27;;;;;;;;;22.00;18.33;;;;;;;;120102;1190;25588;-67
2023/03/03 07:30:56;;;;;;;;;21.67;20.33;;;;;;;;120107;1190;25361;-67
2023/03/03 07:33:33;;;;;;;;;5.33;1.67;;;;;;;;119947;1182;24966;-67
2023/03/03 07:36:02;;;;;;;;;23.33;19.00;;;;;;;;120100;1190;24922;-67
2023/03/03 07:38:34;;;;;;;;;28.50;24.50;;;;;;;;119953;1183;25762;-66
2023/03/03 07:41:10;;;;;;;;;23.75;20.75;;;;;;;;119939;1182;25652;-67
2023/03/03 07:43:43;;;;;;;;;20.00;19.00;;;;;;;;119955;1182;25372;-67
2023/03/03 07:46:49;;;;;;;;;25.00;22.67;;;;;;;;119934;1190;25582;-66
2023/03/03 07:49:43;;;;;;;;;23.67;21.33;;;;;;;;120114;1190;24993;-67
2023/03/03 07:52:39;;;;;;;;;20.00;19.00;;;;;;;;120067;1190;25190;-67
2023/03/03 07:55:26;;;;;;;;;26.00;23.00;;;;;;;;119936;1189;24736;-66
2023/03/03 07:57:56;;;;;;;;;18.50;16.00;;;;;;;;120110;1189;25570;-66
2023/03/03 08:00:29;;;;;;;;;24.33;23.33;;;;;;;;119939;1190;25123;-66
2023/03/03 08:03:03;;;;;;;;;28.25;22.50;;;;;;;;119941;1183;25641;-67
2023/03/03 08:05:39;;;;;;;;;26.00;22.00;;;;;;;;119936;1190;25138;-66
2023/03/03 08:08:31;;;;;;;;;23.50;17.50;;;;;;;;119946;1190;25039;-67
2023/03/03 08:11:00;;;;;;;;;18.33;14.33;;;;;;;;119942;1182;25621;-66
2023/03/03 08:13:32;;;;;;;;;26.50;20.50;;;;;;;;119942;1183;24902;-66
2023/03/03 08:16:21;;;;;;;;;24.50;21.00;;;;;;;;120100;1182;25322;-67
2023/03/03 08:18:52;;;;;;;;;25.00;22.00;;;;;;;;120115;1182;25385;-67
2023/03/03 08:21:22;;;;;;;;;17.75;16.50;;;;;;;;119953;1183;25097;-67
2023/03/03 08:23:52;;;;;;;;;25.00;20.50;;;;;;;;119944;1190;24691;-67
2023/03/03 08:26:21;;;;;;;;;25.00;21.33;;;;;;;;119934;1190;25671;-66
2023/03/03 08:28:50;;;;;;;;;22.25;20.75;;;;;;;;119954;1190;24848;-67
2023/03/03 08:31:19;;;;;;;;;20.67;15.67;;;;;;;;120102;1190;25631;-67
2023/03/03 08:34:07;;;;;;;;;24.67;21.33;;;;;;;;120104;1190;25243;-67
2023/03/03 08:36:35;;;;;;;;;21.33;21.33;;;;;;;;120115;1186;25392;-67
2023/03/03 08:39:04;;;;;;;;;23.33;19.33;;;;;;;;120108;1190;25733;-67
2023/03/03 08:41:32;;;;;;;;;27.00;24.00;;;;;;;;119940;1190;25461;-67
2023/03/03 08:44:00;;;;;;;;;22.25;19.25;;;;;;;;120119;1190;25189;-67
2023/03/03 08:46:29;;;;;;;;;29.00;23.75;;;;;;;;120102;1189;24903;-67
2023/03/03 08:48:57;;;;;;;;;20.50;18.50;;;;;;;;119942;1190;25589;-67
2023/03/03 08:51:25;;;;;;;;;24.00;20.75;;;;;;;;119941;1176;25600;-64
2023/03/03 08:53:54;;;;;;;;;24.00;19.00;;;;;;;;119945;1190;25325;-66
2023/03/03 08:56:22;;;;;;;;;23.00;19.67;;;;;;;;119957;1182;24987;-66
2023/03/03 08:58:50;;;;;;;;;22.50;16.50;;;;;;;;120122;1190;24776;-66
2023/03/03 09:01:31;;;;;;;;;17.00;16.00;;;;;;;;120120;1190;25440;-66
2023/03/03 09:03:59;;;;;;;;;26.25;22.25;;;;;;;;119920;1190;25140;-66
2023/03/03 09:06:27;;;;;;;;;24.00;21.33;;;;;;;;119917;1190;25641;-66
2023/03/03 09:08:56;;;;;;;;;23.25;19.25;;;;;;;;119918;1183;25435;-66
2023/03/03 09:11:26;;;;;;;;;24.33;20.00;;;;;;;;120104;1182;25330;-66
2023/03/03 09:14:12;;;;;;;;;20.00;17.00;;;;;;;;119938;1189;25545;-65
2023/03/03 09:16:47;;;;;;;;;19.67;17.00;;;;;;;;119947;1190;25519;-66
2023/03/03 09:19:21;;;;;;;;;26.50;20.25;;;;;;;;119953;1190;24924;-65
2023/03/03 09:21:54;;;;;;;;;22.33;20.33;;;;;;;;120111;1189;24808;-65
2023/03/03 09:24:31;;;;;;;;;23.25;17.00;;;;;;;;119951;1190;25590;-65
2023/03/03 09:26:59;;;;;;;;;25.50;19.00;;;;;;;;119922;1183;25380;-65
2023/03/03 09:29:29;;;;;;;;;22.00;19.00;;;;;;;;120102;1190;24938;-66
2023/03/03 09:32:00;;;;;;;;;20.00;16.00;;;;;;;;119758;1190;25559;-65
2023/03/03 09:34:35;;;;;;;;;19.50;14.75;;;;;;;;119950;1183;25582;-65
2023/03/03 09:37:23;;;;;;;;;23.67;18.00;;;;;;;;120111;1186;25554;-65
2023/03/03 09:39:54;;;;;;;;;19.00;17.00;;;;;;;;119946;1190;24671;-65
2023/03/03 09:42:34;;;;;;;;;22.50;18.50;;;;;;;;119959;1183;25442;-65
2023/03/03 09:45:26;;;;;;;;;25.00;20.50;;;;;;;;120099;1190;25592;-66
2023/03/03 09:48:19;;;;;;;;;21.33;18.33;;;;;;;;119922;1190;24751;-65
2023/03/03 09:50:50;;;;;;;;;25.00;19.33;;;;;;;;119921;1190;25566;-65
2023/03/03 09:53:30;;;;;;;;;15.00;12.00;;;;;;;;119915;1190;24941;-65
2023/03/03 09:56:04;;;;;;;;;20.25;18.00;;;;;;;;119919;1190;25503;-66
2023/03/03 09:58:44;;;;;;;;;22.00;19.00;;;;;;;;119947;1182;25010;-65
2023/03/03 10:01:34;;;;;;;;;20.50;19.00;;;;;;;;119886;1190;25280;-65
2023/03/03 10:04:27;;;;;;;;;21.50;18.50;;;;;;;;119903;1190;25478;-65
2023/03/03 10:07:14;;;;;;;;;20.33;16.33;;;;;;;;119917;1181;24920;-65
2023/03/03 10:10:04;;;;;;;;;21.33;18.67;;;;;;;;119930;1182;25100;-66
2023/03/03 10:13:01;;;;;;;;;24.67;17.33;;;;;;;;119906;1183;25001;-65
2023/03/03 10:15:35;;;;;;;;;21.00;18.00;;;;;;;;119917;1183;24942;-65
2023/03/03 10:18:28;;;;;;;;;16.50;16.50;;;;;;;;119922;1190;24839;-65
2023/03/03 10:21:26;;;;;;;;;20.00;17.67;;;;;;;;119881;1187;26366;-65
2023/03/03 10:24:02;;;;;;;;;23.67;20.00;;;;;;;;119867;1190;25275;-65
2023/03/03 10:26:53;;;;;;;;;21.33;20.00;;;;;;;;119904;1178;25149;-65
2023/03/03 10:29:45;;;;;;;;;19.33;18.33;;;;;;;;119921;1190;25451;-65
2023/03/03 10:32:41;;;;;;;;;18.75;14.50;;;;;;;;119908;1190;25025;-65
2023/03/03 10:35:31;;;;;;;;;20.50;17.75;;;;;;;;119946;1181;25534;-65
2023/03/03 10:38:14;;;;;;;;;14.25;14.25;;;;;;;;119928;1182;25034;-65
2023/03/03 10:41:13;;;;;;;;;22.33;18.33;;;;;;;;119937;1182;25080;-65
2023/03/03 10:44:00;;;;;;;;;23.00;15.33;;;;;;;;119918;1183;25110;-65
2023/03/03 10:47:07;;;;;;;;;23.00;17.00;;;;;;;;119938;1182;25631;-65
2023/03/03 10:50:18;;;;;;;;;20.00;18.50;;;;;;;;119913;1190;24947;-65
2023/03/03 10:52:56;;;;;;;;;21.00;17.33;;;;;;;;119902;1187;25219;-65
2023/03/03 10:56:05;;;;;;;;;21.00;17.67;;;;;;;;119938;1182;26201;-65
2023/03/03 10:59:11;;;;;;;;;14.67;14.67;;;;;;;;119923;1190;25750;-65
2023/03/03 11:02:12;;;;;;;;;19.50;14.50;;;;;;;;119893;1183;25797;-65
2023/03/03 11:05:06;;;;;;;;;20.25;19.00;;;;;;;;119893;1190;24803;-65
2023/03/03 11:07:48;;;;;;;;;18.67;15.00;;;;;;;;119904;1190;25056;-65
2023/03/03 11:10:29;;;;;;;;;19.67;14.67;;;;;;;;119906;1182;25017;-65
2023/03/03 11:13:10;;;;;;;;;20.00;18.00;;;;;;;;119875;1190;25018;-65
2023/03/03 11:16:02;;;;;;;;;18.25;16.25;;;;;;;;119893;1190;25325;-65
2023/03/03 11:19:01;;;;;;;;;13.00;13.00;;;;;;;;119906;1190;25101;-65
2023/03/03 11:22:02;;;;;;;;;17.00;16.33;;;;;;;;119958;1177;25377;-66
2023/03/03 11:25:14;;;;;;;;;15.00;13.00;;;;;;;;119903;1190;25008;-66
2023/03/03 11:28:35;;;;;;;;;18.25;16.50;;;;;;;;119911;1184;26141;-65
2023/03/03 11:31:45;;;;;;;;;17.50;16.50;;;;;;;;119934;1190;25556;-65
2023/03/03 11:35:27;;;;;;;;;17.33;15.00;;;;;;;;119913;1190;25239;-66
2023/03/03 11:38:58;;;;;;;;;18.33;17.00;;;;;;;;119907;1187;26013;-66
2023/03/03 11:41:42;;;;;;;;;18.00;14.00;;;;;;;;119917;1190;25463;-66
2023/03/03 11:44:49;;;;;;;;;18.00;15.00;;;;;;;;119922;1182;24866;-66
2023/03/03 11:47:55;;;;;;;;;22.33;19.00;;;;;;;;119898;1190;25515;-66
2023/03/03 11:51:05;;;;;;;;;17.00;14.00;;;;;;;;119896;1190;25530;-66
2023/03/03 11:54:44;;;;;;;;;19.00;13.00;;;;;;;;119908;1190;25415;-66
2023/03/03 11:57:36;;;;;;;;;24.00;15.00;;;;;;;;119884;1190;25062;-66
2023/03/03 12:00:37;;;;;;;;;19.67;16.00;;;;;;;;119898;1187;25664;-66
2023/03/03 12:04:10;;;;;;;;;16.50;14.50;;;;;;;;119916;1190;24756;-66
2023/03/03 12:07:12;;;;;;;;;17.67;15.33;;;;;;;;119913;1190;24790;-66
2023/03/03 12:10:37;;;;;;;;;16.00;14.25;;;;;;;;119947;1190;25680;-66
2023/03/03 12:13:55;;;;;;;;;12.67;11.00;;;;;;;;119612;1190;25580;-66
2023/03/03 12:17:28;;;;;;;;;16.50;15.00;;;;;;;;119897;1190;25013;-66
2023/03/03 12:20:57;;;;;;;;;14.50;14.50;;;;;;;;119921;1190;24703;-66
2023/03/03 12:24:49;;;;;;;;;19.33;14.67;;;;;;;;116259;1199;24201;-66
2023/03/03 12:28:13;;;;;;;;;19.00;16.00;;;;;;;;117399;1181;25235;-66
2023/03/03 12:31:53;;;;;;;;;19.67;16.67;;;;;;;;117725;1189;24781;-67
2023/03/03 12:35:20;;;;;;;;;13.67;11.67;;;;;;;;117721;1180;25424;-66
2023/03/03 12:38:35;;;;;;;;;14.00;13.33;;;;;;;;117930;1180;24909;-68
2023/03/03 12:41:23;;;;;;;;;17.00;17.00;;;;;;;;117851;1180;25102;-66
2023/03/03 12:44:58;;;;;;;;;16.50;14.50;;;;;;;;117682;1180;25208;-68
2023/03/03 12:48:48;;;;;;;;;16.00;16.00;;;;;;;;117861;1180;25586;-68
2023/03/03 12:52:08;;;;;;;;;20.33;16.67;;;;;;;;117860;1191;24763;-66
2023/03/03 12:55:44;;;;;;;;;7.00;5.33;;;;;;;;117803;1181;26245;-66
2023/03/03 12:59:16;;;;;;;;;18.50;15.00;;;;;;;;117857;1191;25692;-67
2023/03/03 13:02:46;;;;;;;;;19.00;15.50;;;;;;;;117872;1179;24976;-66
2023/03/03 13:05:53;;;;;;;;;12.33;12.00;;;;;;;;117845;1191;25577;-67
2023/03/03 13:09:03;;;;;;;;;17.33;16.00;;;;;;;;117950;1186;25454;-67
2023/03/03 13:12:18;;;;;;;;;13.00;10.00;;;;;;;;117920;1181;25470;-67
2023/03/03 13:15:29;;;;;;;;;15.00;15.00;;;;;;;;117888;1191;25345;-69
2023/03/03 13:19:13;;;;;;;;;16.00;14.00;;;;;;;;117825;1180;25652;-69
2023/03/03 13:22:38;;;;;;;;;17.33;15.33;;;;;;;;117908;1179;25257;-68
2023/03/03 13:26:06;;;;;;;;;15.00;13.50;;;;;;;;117904;1184;24888;-69
2023/03/03 13:29:34;;;;;;;;;17.00;17.00;;;;;;;;117840;1181;24879;-66
2023/03/03 13:33:22;;;;;;;;;14.00;13.50;;;;;;;;117881;1184;25004;-67
2023/03/03 13:36:39;;;;;;;;;12.33;12.33;;;;;;;;118141;1178;25544;-68
2023/03/03 13:39:32;;;;;;;;;15.67;13.00;;;;;;;;118215;1178;25330;-67
2023/03/03 13:42:32;;;;;;;;;17.50;15.00;;;;;;;;117962;1181;25554;-67
2023/03/03 13:45:56;;;;;;;;;20.00;12.00;;;;;;;;117913;1184;24952;-67
2023/03/03 13:48:50;;;;;;;;;14.67;14.00;;;;;;;;117995;1177;24962;-69
2023/03/03 13:51:51;;;;;;;;;17.00;16.00;;;;;;;;117979;1184;25111;-67
2023/03/03 13:55:05;;;;;;;;;13.50;11.75;;;;;;;;118158;1178;25181;-66
2023/03/03 13:58:21;;;;;;;;;17.50;13.50;;;;;;;;117989;1181;25581;-66
2023/03/03 14:01:18;;;;;;;;;16.00;13.50;;;;;;;;117909;1180;25296;-67
2023/03/03 14:04:48;;;;;;;;;14.00;11.67;;;;;;;;118166;1189;25561;-68
2023/03/03 14:08:03;;;;;;;;;16.50;13.00;;;;;;;;117950;1190;24893;-66
2023/03/03 14:10:59;;;;;;;;;18.50;17.00;;;;;;;;117980;1188;25556;-66
2023/03/03 14:13:42;;;;;;;;;16.50;15.50;;;;;;;;118186;1177;25214;-67
2023/03/03 14:16:55;;;;;;;;;19.00;15.00;;;;;;;;118180;1190;25452;-66
2023/03/03 14:19:41;;;;;;;;;14.33;11.67;;;;;;;;117955;1179;24980;-67
2023/03/03 14:22:23;;;;;;;;;15.67;14.67;;;;;;;;118213;1190;24808;-66
2023/03/03 14:25:07;;;;;;;;;15.00;15.00;;;;;;;;118214;1187;24832;-66
2023/03/03 14:27:53;;;;;;;;;17.00;13.00;;;;;;;;117957;1180;25156;-66
2023/03/03 14:30:21;;;;;;;;;17.67;15.67;;;;;;;;118185;1178;25372;-67
2023/03/03 14:33:00;;;;;;;;;19.50;16.50;;;;;;;;118190;1190;25189;-67
2023/03/03 14:35:33;;;;;;;;;15.67;15.33;;;;;;;;118171;1178;25118;-68
2023/03/03 14:38:35;;;;;;;;;14.00;13.50;;;;;;;;118208;1178;25358;-67
2023/03/03 14:41:18;;;;;;;;;16.00;13.00;;;;;;;;118163;1182;24758;-67
2023/03/03 14:44:21;;;;;;;;;12.50;12.00;;;;;;;;118194;1188;24897;-67
2023/03/03 14:47:11;;;;;;;;;16.67;15.00;;;;;;;;118220;1187;25659;-66
2023/03/03 14:49:39;;;;;;;;;12.00;10.00;;;;;;;;118157;1184;25099;-67
2023/03/03 14:52:13;;;;;;;;;14.50;13.00;;;;;;;;117974;1180;25177;-66
2023/03/03 14:54:45;;;;;;;;;17.00;16.50;;;;;;;;118192;1190;25512;-71
2023/03/03 14:57:50;;;;;;;;;18.67;15.00;;;;;;;;117982;1190;25321;-67
2023/03/03 15:00:18;;;;;;;;;19.00;13.00;;;;;;;;118187;1178;24863;-67
2023/03/03 15:03:09;;;;;;;;;16.67;12.67;;;;;;;;118211;1184;25131;-67
2023/03/03 15:05:51;;;;;;;;;17.00;14.00;;;;;;;;118190;1190;25213;-67
2023/03/03 15:08:29;;;;;;;;;14.67;13.33;;;;;;;;118161;1177;25532;-67
2023/03/03 15:11:22;;;;;;;;;16.00;14.33;;;;;;;;118004;1179;25081;-66
2023/03/03 15:13:50;;;;;;;;;13.50;13.00;;;;;;;;118157;1177;25006;-67
2023/03/03 15:16:24;;;;;;;;;18.00;16.50;;;;;;;;117986;1177;24865;-68
2023/03/03 15:19:15;;;;;;;;;17.00;14.33;;;;;;;;117980;1177;25616;-68
2023/03/03 15:22:20;;;;;;;;;15.67;13.67;;;;;;;;118189;1177;24729;-72
2023/03/03 15:25:16;;;;;;;;;17.33;14.67;;;;;;;;117941;1177;25216;-67